• Join FlightAware (Why Join?)
  • Login
  • US Flag 
04:19PM EDT


 

Airport Tracker/Info


-or-


 

Live Flight TrackerFlight Track Log ✈ CCA1681 ✈ 05-Feb-2014 ✈ ZBAA / PEK - ZYMD / MDG

Flight Track Log - Related Links

Times and Time Zones

All times are in EST time to prevent confusion due to time zone crossing. See the CCA1681 flight status page for this flight to view local times or setup timezone preferences in your user account.

Time Position Orientation Groundspeed Altitude Reporting Facility
EST Latitude Longitude Course Direction KTS MPH feet Rate Location/Type
02:22AM 40.3331 117.1842 61° Northeast  Level Estimated
02:23AM 40.3834 117.3046 61° Northeast  Level Estimated
02:24AM 40.4335 117.4253 61° Northeast  Level Estimated
02:25AM 40.4835 117.5461 61° Northeast  Level Estimated
02:26AM 40.5333 117.6671 62° Northeast  Level Estimated
02:27AM 40.5831 117.7883 62° Northeast  Level Estimated
02:28AM 40.6327 117.9096 62° Northeast  Level Estimated
02:29AM 40.6821 118.0312 62° Northeast  Level Estimated
02:30AM 40.7315 118.1529 62° Northeast  Level Estimated
02:31AM 40.7807 118.2748 62° Northeast  Level Estimated
02:32AM 40.8298 118.3969 62° Northeast  Level Estimated
02:33AM 40.8788 118.5191 62° Northeast  Level Estimated
02:34AM 40.9276 118.6416 62° Northeast  Level Estimated
02:35AM 40.9763 118.7642 62° Northeast  Level Estimated
02:36AM 41.0249 118.8870 62° Northeast  Level Estimated
02:37AM 41.0733 119.0100 62° Northeast  Level Estimated
02:38AM 41.1216 119.1331 62° Northeast  Level Estimated
02:39AM 41.1698 119.2565 63° Northeast  Level Estimated
02:40AM 41.2179 119.3800 63° Northeast  Level Estimated
02:41AM 41.2658 119.5037 63° Northeast  Level Estimated
02:42AM 41.3136 119.6276 63° Northeast  Level Estimated
02:43AM 41.3612 119.7517 63° Northeast  Level Estimated
02:44AM 41.4087 119.8760 63° Northeast  Level Estimated
02:45AM 41.4561 120.0004 63° Northeast  Level Estimated
02:46AM 41.5034 120.1250 63° Northeast  Level Estimated
02:47AM 41.5505 120.2498 63° Northeast  Level Estimated
02:48AM 41.5975 120.3748 63° Northeast  Level Estimated
02:49AM 41.6443 120.5000 63° Northeast  Level Estimated
02:50AM 41.6911 120.6253 63° Northeast  Level Estimated
02:51AM 41.7376 120.7508 64° Northeast  Level Estimated
02:52AM 41.7841 120.8765 64° Northeast  Level Estimated
02:53AM 41.8304 121.0024 64° Northeast  Level Estimated
02:54AM 41.8765 121.1285 64° Northeast  Level Estimated
02:55AM 41.9225 121.2548 64° Northeast  Level Estimated
02:56AM 41.9684 121.3812 64° Northeast  Level Estimated
02:57AM 42.0142 121.5078 64° Northeast  Level Estimated
02:58AM 42.0598 121.6346 64° Northeast  Level Estimated
02:59AM 42.1053 121.7616 64° Northeast  Level Estimated
03:00AM 42.1506 121.8888 64° Northeast  Level Estimated
03:01AM 42.1958 122.0161 64° Northeast  Level Estimated
03:02AM 42.2408 122.1437 64° Northeast  Level Estimated
03:03AM 42.2857 122.2714 65° Northeast  Level Estimated
03:04AM 42.3305 122.3993 65° Northeast  Level Estimated
03:05AM 42.3751 122.5273 65° Northeast  Level Estimated
03:06AM 42.4196 122.6556 65° Northeast  Level Estimated
03:07AM 42.4639 122.7840 65° Northeast  Level Estimated
03:08AM 42.5081 122.9127 65° Northeast  Level Estimated
03:09AM 42.5522 123.0415 65° Northeast  Level Estimated
03:10AM 42.5961 123.1704 65° Northeast  Level Estimated
03:11AM 42.6398 123.2996 65° Northeast  Level Estimated
03:12AM 42.6834 123.4290 65° Northeast  Level Estimated
03:13AM 42.7269 123.5585 65° Northeast  Level Estimated
03:14AM 42.7702 123.6882 66° East  Level Estimated
03:15AM 42.8134 123.8181 66° East  Level Estimated
03:16AM 42.8564 123.9482 66° East  Level Estimated
03:17AM 42.8993 124.0784 66° East  Level Estimated
03:18AM 42.9420 124.2088 66° East  Level Estimated
03:19AM 42.9846 124.3395 66° East  Level Estimated
03:20AM 43.0270 124.4703 66° East  Level Estimated
03:21AM 43.0693 124.6012 66° East  Level Estimated
03:22AM 43.1114 124.7324 66° East  Level Estimated
03:23AM 43.1534 124.8637 66° East  Level Estimated
03:24AM 43.1953 124.9953 66° East  Level Estimated
03:25AM 43.2369 125.1270 66° East  Level Estimated
03:26AM 43.2785 125.2588 67° East  Level Estimated
03:27AM 43.3198 125.3909 67° East  Level Estimated
03:28AM 43.3611 125.5231 67° East  Level Estimated
03:29AM 43.4021 125.6556 67° East  Level Estimated
03:30AM 43.4431 125.7882 67° East  Level Estimated
03:31AM 43.4838 125.9209 67° East  Level Estimated
03:32AM 43.5245 126.0539 67° East  Level Estimated
03:33AM 43.5649 126.1870 67° East  Level Estimated
03:34AM 43.6052 126.3203 67° East  Level Estimated
03:35AM 43.6454 126.4538 67° East  Level Estimated
03:36AM 43.6854 126.5875 67° East  Level Estimated
03:37AM 43.7252 126.7213 68° East  Level Estimated
03:38AM 43.7649 126.8554 68° East  Level Estimated
03:39AM 43.8044 126.9896 68° East  Level Estimated
03:40AM 43.8438 127.1239 68° East  Level Estimated
03:41AM 43.8830 127.2585 68° East  Level Estimated
03:42AM 43.9221 127.3932 68° East  Level Estimated
03:43AM 43.9610 127.5281 68° East  Level Estimated
03:44AM 43.9997 127.6632 68° East  Level Estimated
03:45AM 44.0383 127.7985 68° East  Level Estimated
03:46AM 44.0767 127.9339 68° East  Level Estimated
03:47AM 44.1150 128.0695 69° East  Level Estimated
03:48AM 44.1531 128.2053 69° East  Level Estimated
03:49AM 44.1910 128.3413 69° East  Level Estimated
03:50AM 44.2288 128.4774 69° East  Level Estimated
03:51AM 44.2664 128.6138 69° East  Level Estimated
03:52AM 44.3038 128.7502 69° East  Level Estimated
03:53AM 44.3411 128.8869 69° East  Level Estimated
03:54AM 44.3782 129.0237 69° East  Level Estimated
03:55AM 44.4152 129.1608 69° East  Level Estimated
03:56AM 44.4520 129.2979 69° East  Level Estimated